createdAt,value
2023-03-29T00:01:35.679Z,86.73
2023-03-29T00:04:04.738Z,86.75
2023-03-29T00:06:33.461Z,86.96
2023-03-29T00:09:01.989Z,86.53
2023-03-29T00:11:29.156Z,87.38
2023-03-29T00:13:56.343Z,87.35
2023-03-29T00:16:23.605Z,87.70
2023-03-29T00:18:50.870Z,87.71
2023-03-29T00:21:18.105Z,88.03
2023-03-29T00:23:45.235Z,88.21
2023-03-29T00:26:12.492Z,88.98
2023-03-29T00:28:39.596Z,89.30
2023-03-29T00:31:10.247Z,90.15
2023-03-29T00:33:37.988Z,90.58
2023-03-29T00:36:06.567Z,89.97
2023-03-29T00:38:33.835Z,90.79
2023-03-29T00:41:01.428Z,89.75
2023-03-29T00:43:28.833Z,89.76
2023-03-29T00:45:56.389Z,88.96
2023-03-29T00:48:30.174Z,88.67
2023-03-29T00:51:04.213Z,88.80
2023-03-29T00:53:38.635Z,89.30
2023-03-29T00:56:24.484Z,89.64
2023-03-29T00:59:03.850Z,89.90
2023-03-29T01:01:45.471Z,89.61
2023-03-29T01:04:21.938Z,89.95
2023-03-29T01:07:25.762Z,89.69
2023-03-29T01:10:12.961Z,89.24
2023-03-29T01:12:50.493Z,88.83
2023-03-29T01:15:22.576Z,89.07
2023-03-29T01:17:53.702Z,88.64
2023-03-29T01:20:43.611Z,88.73
2023-03-29T01:23:29.456Z,89.10
2023-03-29T01:26:38.783Z,89.24
2023-03-29T01:29:34.408Z,88.98
2023-03-29T01:32:13.403Z,88.18
2023-03-29T01:34:58.758Z,88.23
2023-03-29T01:37:53.056Z,88.88
2023-03-29T01:40:20.178Z,88.90
2023-03-29T01:43:21.579Z,87.93
2023-03-29T01:46:01.446Z,85.76
2023-03-29T01:48:51.869Z,85.68
2023-03-29T01:51:28.355Z,85.36
2023-03-29T01:54:17.555Z,85.03
2023-03-29T01:56:49.133Z,85.00
2023-03-29T01:59:22.760Z,85.06
2023-03-29T02:01:54.501Z,85.08
2023-03-29T02:04:29.345Z,84.48
2023-03-29T02:07:00.209Z,85.13
2023-03-29T02:09:28.929Z,85.15
2023-03-29T02:11:59.942Z,85.32
2023-03-29T02:14:27.720Z,84.10
2023-03-29T02:16:54.810Z,83.23
2023-03-29T02:19:25.361Z,83.03
2023-03-29T02:22:10.385Z,82.85
2023-03-29T02:24:40.907Z,81.38
2023-03-29T02:27:08.714Z,81.96
2023-03-29T02:29:36.194Z,81.39
2023-03-29T02:32:08.981Z,81.00
2023-03-29T02:35:13.252Z,81.35
2023-03-29T02:37:45.232Z,80.94
2023-03-29T02:40:15.173Z,80.99
2023-03-29T02:42:45.897Z,80.46
2023-03-29T02:45:16.232Z,80.18
2023-03-29T02:47:49.793Z,79.92
2023-03-29T02:50:17.625Z,80.11
2023-03-29T02:52:53.424Z,79.29
2023-03-29T02:55:23.735Z,78.89
2023-03-29T02:57:50.977Z,77.43
2023-03-29T03:00:23.341Z,77.45
2023-03-29T03:02:51.939Z,76.61
2023-03-29T03:05:19.534Z,75.20
2023-03-29T03:07:47.225Z,75.40
2023-03-29T03:10:14.726Z,75.97
2023-03-29T03:12:42.136Z,75.49
2023-03-29T03:15:09.832Z,75.67
2023-03-29T03:17:41.248Z,74.52
2023-03-29T03:20:13.260Z,74.06
2023-03-29T03:22:49.398Z,75.13
2023-03-29T03:25:19.668Z,74.90
2023-03-29T03:27:48.720Z,73.96
2023-03-29T03:30:18.629Z,73.20
2023-03-29T03:33:04.368Z,73.85
2023-03-29T03:36:06.227Z,72.95
2023-03-29T03:38:36.332Z,72.09
2023-03-29T03:41:05.871Z,72.18
2023-03-29T03:43:35.121Z,73.67
2023-03-29T03:46:02.731Z,73.82
2023-03-29T03:48:30.699Z,73.21
2023-03-29T03:51:27.226Z,73.67
2023-03-29T03:53:54.736Z,75.54
2023-03-29T03:56:34.444Z,76.41
2023-03-29T03:59:07.412Z,76.04
2023-03-29T04:01:58.322Z,75.82
2023-03-29T04:04:26.085Z,77.35
2023-03-29T04:07:18.102Z,76.53
2023-03-29T04:09:57.391Z,77.27
2023-03-29T04:12:40.021Z,77.31
2023-03-29T04:15:09.138Z,78.54
2023-03-29T04:17:37.297Z,78.31
2023-03-29T04:20:33.659Z,78.24
2023-03-29T04:23:01.676Z,78.77
2023-03-29T04:25:29.701Z,78.96
2023-03-29T04:27:59.723Z,78.79
2023-03-29T04:30:52.424Z,79.37
2023-03-29T04:33:40.269Z,78.75
2023-03-29T04:36:09.449Z,79.40
2023-03-29T04:38:36.588Z,79.49
2023-03-29T04:41:05.083Z,78.83
2023-03-29T04:43:53.829Z,79.99
2023-03-29T04:46:26.919Z,79.18
2023-03-29T04:49:12.873Z,82.77
2023-03-29T04:51:43.616Z,79.07
2023-03-29T04:54:11.703Z,79.53
2023-03-29T04:56:55.287Z,78.66
2023-03-29T04:59:48.868Z,77.31
2023-03-29T05:02:34.585Z,77.32
2023-03-29T05:05:02.590Z,77.76
2023-03-29T05:07:30.689Z,77.81
2023-03-29T05:09:58.501Z,77.87
2023-03-29T05:12:26.039Z,76.53
2023-03-29T05:14:54.522Z,76.99
2023-03-29T05:17:27.566Z,76.63
2023-03-29T05:20:01.168Z,76.39
2023-03-29T05:22:29.869Z,76.24
2023-03-29T05:24:57.674Z,76.11
2023-03-29T05:27:25.624Z,76.48
2023-03-29T05:30:02.682Z,76.92
2023-03-29T05:32:38.314Z,76.69
2023-03-29T05:35:07.283Z,76.16
2023-03-29T05:37:35.368Z,75.44
2023-03-29T05:40:10.871Z,75.33
2023-03-29T05:43:02.704Z,75.50
2023-03-29T05:45:30.210Z,74.87
2023-03-29T05:47:58.153Z,73.48
2023-03-29T05:50:25.534Z,73.20
2023-03-29T05:52:53.188Z,72.77
2023-03-29T05:55:20.427Z,72.94
2023-03-29T05:57:47.728Z,72.08
2023-03-29T06:00:25.878Z,72.62
2023-03-29T06:03:17.689Z,72.35
2023-03-29T06:05:49.786Z,71.61
2023-03-29T06:08:17.773Z,71.04
2023-03-29T06:11:17.797Z,71.36
2023-03-29T06:14:03.622Z,69.03
2023-03-29T06:16:32.687Z,67.95
2023-03-29T06:18:59.936Z,67.35
2023-03-29T06:21:29.168Z,66.96
2023-03-29T06:23:56.952Z,66.11
2023-03-29T06:26:27.803Z,66.05
2023-03-29T06:28:55.018Z,66.25
2023-03-29T06:31:22.241Z,66.63
2023-03-29T06:33:51.781Z,65.94
2023-03-29T06:36:32.858Z,65.81
2023-03-29T06:39:00.134Z,63.78
2023-03-29T06:41:47.578Z,60.99
2023-03-29T06:44:49.724Z,60.25
2023-03-29T06:47:19.718Z,60.68
2023-03-29T06:49:46.918Z,59.94
2023-03-29T06:52:29.816Z,59.15
2023-03-29T06:54:57.067Z,60.50
2023-03-29T06:57:25.943Z,57.96
2023-03-29T06:59:54.030Z,56.09
2023-03-29T07:02:24.417Z,56.50
2023-03-29T07:04:56.380Z,56.07
2023-03-29T07:07:53.606Z,57.08
2023-03-29T07:10:47.651Z,56.54
2023-03-29T07:13:53.452Z,55.12
2023-03-29T07:16:21.896Z,56.46
2023-03-29T07:19:15.595Z,54.39
2023-03-29T07:21:53.513Z,53.57
2023-03-29T07:24:23.824Z,53.05
2023-03-29T07:27:03.133Z,54.73
2023-03-29T07:29:32.948Z,53.17
2023-03-29T07:32:00.380Z,52.34
2023-03-29T07:34:55.216Z,49.79
2023-03-29T07:37:28.657Z,50.60
2023-03-29T07:39:57.728Z,51.66
2023-03-29T07:42:46.948Z,51.13
2023-03-29T07:45:26.846Z,49.92
2023-03-29T07:48:08.997Z,49.14
2023-03-29T07:50:49.584Z,49.39
2023-03-29T07:53:19.825Z,49.21
2023-03-29T07:55:48.891Z,48.89
2023-03-29T07:58:46.695Z,48.66
2023-03-29T08:01:18.843Z,47.98
2023-03-29T08:04:10.068Z,48.20
2023-03-29T08:06:55.863Z,47.77
2023-03-29T08:09:29.243Z,46.80
2023-03-29T08:11:57.818Z,46.04
2023-03-29T08:14:31.794Z,46.49
2023-03-29T08:17:04.904Z,46.54
2023-03-29T08:19:35.974Z,47.20
2023-03-29T08:22:05.563Z,45.22
2023-03-29T08:25:07.025Z,46.01
2023-03-29T08:27:39.842Z,45.71
2023-03-29T08:30:10.496Z,45.55
2023-03-29T08:32:39.429Z,44.04
2023-03-29T08:35:09.712Z,44.21
2023-03-29T08:37:55.622Z,43.67
2023-03-29T08:40:27.366Z,43.44
2023-03-29T08:43:46.584Z,43.22
2023-03-29T08:46:33.113Z,43.04
2023-03-29T08:49:13.167Z,41.47
2023-03-29T08:51:46.561Z,42.03
2023-03-29T08:54:34.057Z,41.51
2023-03-29T08:57:17.928Z,41.67
2023-03-29T08:59:52.994Z,40.80
2023-03-29T09:02:24.872Z,41.53
2023-03-29T09:05:02.940Z,41.26
2023-03-29T09:07:42.220Z,41.18
2023-03-29T09:10:16.064Z,40.91
2023-03-29T09:12:52.896Z,41.33
2023-03-29T09:15:34.841Z,40.36
2023-03-29T09:18:43.912Z,39.32
2023-03-29T09:21:52.983Z,38.99
2023-03-29T09:24:58.197Z,39.16
2023-03-29T09:27:44.380Z,37.33
2023-03-29T09:30:28.682Z,38.57
2023-03-29T09:33:12.307Z,39.08
2023-03-29T09:36:10.622Z,38.46
2023-03-29T09:38:42.726Z,39.05
2023-03-29T09:41:22.008Z,39.20
2023-03-29T09:43:52.347Z,38.84
2023-03-29T09:46:30.471Z,38.24
2023-03-29T09:48:58.031Z,38.19
2023-03-29T09:51:28.033Z,38.91
2023-03-29T09:53:57.511Z,36.59
2023-03-29T09:56:36.816Z,37.69
2023-03-29T09:59:12.636Z,37.58
2023-03-29T10:01:45.337Z,36.93
2023-03-29T10:04:16.942Z,35.83
2023-03-29T10:06:52.441Z,35.84
2023-03-29T10:09:22.868Z,36.22
2023-03-29T10:12:02.349Z,35.13
2023-03-29T10:14:42.690Z,35.57
2023-03-29T10:17:24.822Z,34.51
2023-03-29T10:20:18.810Z,34.38
2023-03-29T10:22:48.406Z,34.92
2023-03-29T10:25:18.435Z,34.54
2023-03-29T10:27:48.074Z,34.24
2023-03-29T10:30:24.382Z,33.77
2023-03-29T10:32:58.164Z,33.60
2023-03-29T10:35:51.841Z,34.18
2023-03-29T10:38:23.075Z,33.09
2023-03-29T10:40:53.249Z,33.56
2023-03-29T10:43:23.255Z,31.75
2023-03-29T10:45:52.622Z,32.82
2023-03-29T10:48:26.088Z,31.56
2023-03-29T10:50:53.373Z,31.44
2023-03-29T10:53:29.424Z,31.74
2023-03-29T10:56:16.458Z,32.38
2023-03-29T10:59:11.486Z,30.73
2023-03-29T11:01:51.694Z,30.48
2023-03-29T11:04:29.617Z,30.46
2023-03-29T11:07:15.678Z,30.88
2023-03-29T11:09:52.805Z,31.00
2023-03-29T11:12:32.174Z,30.81
2023-03-29T11:15:27.363Z,30.65
2023-03-29T11:18:23.066Z,29.29
2023-03-29T11:21:15.337Z,29.74
2023-03-29T11:24:18.403Z,30.01
2023-03-29T11:27:11.949Z,30.39
2023-03-29T11:30:00.506Z,30.77
2023-03-29T11:32:38.723Z,30.92
2023-03-29T11:35:31.793Z,30.76
2023-03-29T11:38:16.070Z,30.26
2023-03-29T11:40:55.294Z,28.99
2023-03-29T11:43:41.580Z,29.06
2023-03-29T11:46:13.997Z,28.97
2023-03-29T11:48:57.058Z,28.13
2023-03-29T11:51:27.134Z,28.14
2023-03-29T11:54:03.703Z,29.15
2023-03-29T11:56:41.404Z,28.93
2023-03-29T11:59:41.099Z,29.23
2023-03-29T12:02:36.814Z,29.02
2023-03-29T12:05:13.911Z,28.59
2023-03-29T12:08:05.691Z,28.13
2023-03-29T12:10:42.094Z,27.45
2023-03-29T12:13:21.299Z,28.14
2023-03-29T12:16:00.438Z,27.75
2023-03-29T12:18:33.011Z,28.17
2023-03-29T12:21:04.056Z,28.14
2023-03-29T12:23:34.196Z,27.79
2023-03-29T12:26:17.301Z,26.23
2023-03-29T12:29:07.240Z,26.36
2023-03-29T12:31:37.386Z,26.87
2023-03-29T12:34:37.110Z,27.58
2023-03-29T12:37:47.086Z,26.77
2023-03-29T12:40:44.210Z,27.15
2023-03-29T12:43:37.774Z,26.35
2023-03-29T12:46:27.009Z,26.61
2023-03-29T12:49:05.956Z,26.99
2023-03-29T12:51:35.299Z,27.08
2023-03-29T12:54:31.211Z,28.11
2023-03-29T12:57:18.864Z,26.41
2023-03-29T12:59:49.182Z,27.06
2023-03-29T13:02:17.873Z,27.39
2023-03-29T13:04:56.106Z,26.01
2023-03-29T13:07:23.219Z,25.59
2023-03-29T13:09:52.992Z,26.22
2023-03-29T13:12:30.243Z,26.06
2023-03-29T13:15:02.542Z,25.78
2023-03-29T13:17:45.239Z,27.50
2023-03-29T13:20:37.631Z,27.71
2023-03-29T13:23:42.498Z,27.49
2023-03-29T13:26:45.828Z,27.21
2023-03-29T13:29:51.429Z,27.09
2023-03-29T13:32:54.060Z,26.84
2023-03-29T13:35:34.337Z,26.28
2023-03-29T13:38:26.371Z,26.79
2023-03-29T13:40:53.512Z,26.67
2023-03-29T13:43:31.560Z,26.89
2023-03-29T13:45:58.691Z,27.07
2023-03-29T13:48:29.743Z,27.58
2023-03-29T13:51:01.208Z,25.40
2023-03-29T13:53:37.420Z,25.34
2023-03-29T13:56:08.531Z,26.09
2023-03-29T13:58:45.013Z,26.00
2023-03-29T14:01:19.914Z,26.18
2023-03-29T14:03:51.968Z,26.36
2023-03-29T14:06:32.494Z,26.34
2023-03-29T14:09:06.480Z,26.48
2023-03-29T14:11:33.982Z,26.54
2023-03-29T14:14:05.235Z,26.38
2023-03-29T14:16:36.999Z,26.00
2023-03-29T14:19:11.964Z,26.55
2023-03-29T14:21:41.470Z,25.31
2023-03-29T14:24:12.978Z,26.30
2023-03-29T14:26:44.962Z,27.27
2023-03-29T14:29:12.309Z,26.79
2023-03-29T14:31:42.157Z,26.87
2023-03-29T14:34:18.589Z,27.50
2023-03-29T14:36:49.084Z,27.65
2023-03-29T14:39:21.193Z,27.79
2023-03-29T14:41:53.381Z,28.27
2023-03-29T14:44:22.642Z,28.49
2023-03-29T14:46:50.063Z,28.21
2023-03-29T14:49:19.957Z,27.24
2023-03-29T14:51:48.305Z,27.03
2023-03-29T14:54:32.017Z,27.46
2023-03-29T14:57:03.728Z,27.94
2023-03-29T14:59:41.470Z,27.43
2023-03-29T15:02:27.220Z,27.07
2023-03-29T15:05:05.325Z,27.41
2023-03-29T15:07:34.803Z,27.76
2023-03-29T15:10:05.280Z,28.27
2023-03-29T15:12:33.984Z,28.70
2023-03-29T15:15:02.783Z,27.97
2023-03-29T15:17:51.009Z,28.29
2023-03-29T15:20:23.434Z,27.49
2023-03-29T15:23:04.183Z,27.63
2023-03-29T15:25:38.307Z,27.32
2023-03-29T15:28:06.427Z,27.55
2023-03-29T15:30:46.262Z,27.46
2023-03-29T15:33:20.516Z,27.88
2023-03-29T15:35:52.011Z,27.03
2023-03-29T15:38:27.484Z,26.90
2023-03-29T15:41:01.615Z,26.87
2023-03-29T15:43:29.110Z,27.11
2023-03-29T15:45:57.044Z,26.94
2023-03-29T15:48:28.575Z,27.68
2023-03-29T15:50:57.185Z,28.44
2023-03-29T15:53:25.549Z,28.09
2023-03-29T15:55:55.103Z,28.04
2023-03-29T15:58:29.334Z,28.47
2023-03-29T16:01:19.415Z,28.41
2023-03-29T16:03:48.026Z,28.58
2023-03-29T16:06:17.721Z,28.89
2023-03-29T16:08:45.005Z,29.10
2023-03-29T16:11:12.296Z,29.25
2023-03-29T16:13:39.555Z,29.62
2023-03-29T16:16:07.872Z,30.07
2023-03-29T16:18:36.041Z,30.50
2023-03-29T16:21:03.841Z,30.82
2023-03-29T16:23:31.206Z,30.46
2023-03-29T16:25:59.436Z,30.92
2023-03-29T16:28:26.562Z,30.47
2023-03-29T16:30:53.654Z,30.59
2023-03-29T16:33:21.186Z,30.41
2023-03-29T16:35:48.352Z,30.92
2023-03-29T16:38:15.621Z,31.18
2023-03-29T16:40:42.939Z,31.52
2023-03-29T16:43:16.268Z,31.63
2023-03-29T16:45:43.793Z,31.47
2023-03-29T16:48:18.179Z,31.39
2023-03-29T16:50:49.595Z,31.69
2023-03-29T16:53:18.611Z,31.88
2023-03-29T16:55:46.902Z,32.33
2023-03-29T16:58:15.514Z,32.41
2023-03-29T17:00:46.341Z,32.49
2023-03-29T17:03:16.437Z,33.16
2023-03-29T17:05:54.070Z,33.27
2023-03-29T17:08:22.212Z,33.75
2023-03-29T17:10:54.110Z,33.63
2023-03-29T17:13:24.047Z,33.75
2023-03-29T17:15:52.614Z,34.02
2023-03-29T17:18:21.222Z,34.07
2023-03-29T17:20:50.972Z,34.39
2023-03-29T17:23:18.237Z,34.63
2023-03-29T17:25:45.646Z,34.82
2023-03-29T17:28:12.938Z,34.27
2023-03-29T17:30:40.434Z,35.17
2023-03-29T17:33:08.308Z,35.02
2023-03-29T17:35:35.775Z,35.08
2023-03-29T17:38:03.028Z,35.62
2023-03-29T17:40:30.255Z,35.75
2023-03-29T17:42:57.742Z,36.29
2023-03-29T17:45:24.921Z,36.25
2023-03-29T17:47:52.099Z,36.68
2023-03-29T17:50:19.312Z,36.67
2023-03-29T17:52:46.611Z,37.04
2023-03-29T17:55:13.906Z,37.44
2023-03-29T17:57:42.417Z,37.31
2023-03-29T18:00:14.537Z,37.35
2023-03-29T18:02:44.777Z,37.32
2023-03-29T18:05:12.238Z,37.22
2023-03-29T18:07:39.492Z,37.54
2023-03-29T18:10:08.313Z,37.62
2023-03-29T18:12:36.358Z,37.99
2023-03-29T18:15:03.843Z,38.38
2023-03-29T18:17:31.792Z,38.41
2023-03-29T18:22:26.188Z,38.57
2023-03-29T18:24:55.050Z,38.65
2023-03-29T18:27:22.189Z,38.66
2023-03-29T18:29:49.379Z,38.89
2023-03-29T18:32:16.636Z,38.98
2023-03-29T18:34:43.972Z,39.44
2023-03-29T18:37:15.052Z,39.13
2023-03-29T18:39:42.965Z,39.40
2023-03-29T18:42:12.267Z,39.49
2023-03-29T18:44:43.383Z,39.72
2023-03-29T18:47:10.741Z,40.09
2023-03-29T18:49:37.926Z,40.27
2023-03-29T18:52:05.963Z,40.22
2023-03-29T18:54:33.102Z,40.73
2023-03-29T18:57:00.839Z,40.91
2023-03-29T18:59:28.107Z,41.16
2023-03-29T19:01:55.883Z,41.23
2023-03-29T19:04:25.065Z,41.40
2023-03-29T19:06:54.255Z,41.58
2023-03-29T19:09:21.629Z,41.65
2023-03-29T19:11:48.981Z,41.77
2023-03-29T19:14:17.494Z,41.79
2023-03-29T19:16:44.564Z,41.97
2023-03-29T19:19:12.907Z,42.49
2023-03-29T19:21:41.396Z,42.21
2023-03-29T19:24:08.867Z,42.17
2023-03-29T19:26:36.101Z,42.48
2023-03-29T19:29:03.519Z,42.55
2023-03-29T19:31:31.916Z,42.40
2023-03-29T19:33:59.574Z,42.11
2023-03-29T19:36:26.601Z,42.28
2023-03-29T19:38:54.302Z,42.57
2023-03-29T19:41:22.241Z,42.34
2023-03-29T19:43:49.327Z,42.64
2023-03-29T19:46:16.616Z,42.97
2023-03-29T19:48:43.829Z,42.99
2023-03-29T19:51:10.983Z,42.72
2023-03-29T19:53:39.136Z,42.70
2023-03-29T19:56:07.921Z,42.29
2023-03-29T19:58:35.110Z,42.51
2023-03-29T20:01:02.616Z,42.45
2023-03-29T20:03:30.019Z,42.77
2023-03-29T20:05:57.509Z,42.55
2023-03-29T20:08:27.354Z,42.45
2023-03-29T20:11:03.743Z,42.37
2023-03-29T20:13:38.188Z,42.29
2023-03-29T20:16:08.134Z,42.09
2023-03-29T20:18:38.395Z,42.02
2023-03-29T20:21:09.428Z,42.31
2023-03-29T20:23:36.699Z,42.12
2023-03-29T20:26:03.902Z,45.09
2023-03-29T20:28:31.634Z,45.53
2023-03-29T20:31:03.747Z,45.68
2023-03-29T20:33:31.099Z,46.07
2023-03-29T20:35:58.517Z,46.14
2023-03-29T20:38:26.083Z,46.72
2023-03-29T20:40:53.780Z,47.12
2023-03-29T20:43:21.196Z,47.12
2023-03-29T20:45:53.825Z,47.14
2023-03-29T20:48:24.410Z,46.97
2023-03-29T20:50:51.894Z,46.74
2023-03-29T20:53:20.715Z,46.96
2023-03-29T20:55:48.302Z,46.85
2023-03-29T20:58:16.002Z,46.69
2023-03-29T21:00:43.993Z,47.22
2023-03-29T21:03:11.643Z,47.50
2023-03-29T21:05:39.061Z,47.24
2023-03-29T21:08:06.410Z,47.62
2023-03-29T21:10:33.549Z,47.55
2023-03-29T21:13:02.873Z,47.53
2023-03-29T21:15:31.098Z,47.49
2023-03-29T21:17:58.782Z,47.55
2023-03-29T21:20:26.077Z,47.48
2023-03-29T21:22:53.207Z,47.58
2023-03-29T21:25:20.437Z,47.28
2023-03-29T21:27:47.606Z,47.52
2023-03-29T21:30:14.843Z,47.17
2023-03-29T21:32:42.088Z,47.81
2023-03-29T21:35:09.912Z,48.55
2023-03-29T21:37:37.058Z,49.17
2023-03-29T21:40:10.533Z,49.25
2023-03-29T21:42:37.823Z,48.64
2023-03-29T21:45:05.461Z,48.40
2023-03-29T21:47:32.653Z,47.85
2023-03-29T21:49:59.823Z,47.54
2023-03-29T21:52:26.945Z,47.22
2023-03-29T21:54:53.945Z,47.30
2023-03-29T21:57:21.304Z,47.58
2023-03-29T21:59:48.564Z,47.80
2023-03-29T22:02:15.689Z,48.14
2023-03-29T22:04:42.960Z,47.87
2023-03-29T22:07:10.835Z,47.42
2023-03-29T22:09:41.382Z,47.50
2023-03-29T22:12:10.111Z,47.21
2023-03-29T22:14:37.425Z,47.28
2023-03-29T22:17:08.502Z,46.98
2023-03-29T22:19:39.802Z,46.92
2023-03-29T22:22:13.700Z,47.70
2023-03-29T22:24:42.369Z,47.97
2023-03-29T22:27:11.239Z,47.80
2023-03-29T22:29:38.353Z,47.98
2023-03-29T22:32:06.004Z,48.42
2023-03-29T22:34:33.539Z,48.78
2023-03-29T22:37:00.593Z,48.96
2023-03-29T22:39:27.639Z,49.04
2023-03-29T22:41:54.805Z,48.71
2023-03-29T22:44:22.374Z,48.50
2023-03-29T22:46:49.766Z,48.30
2023-03-29T22:49:16.885Z,47.69
2023-03-29T22:51:44.022Z,47.98
2023-03-29T22:54:11.531Z,47.75
2023-03-29T22:56:38.625Z,47.92
2023-03-29T22:59:05.748Z,47.98
2023-03-29T23:01:32.976Z,47.46
2023-03-29T23:04:00.289Z,47.54
2023-03-29T23:06:27.573Z,47.02
2023-03-29T23:08:54.731Z,46.91
2023-03-29T23:11:21.903Z,47.48
2023-03-29T23:13:49.127Z,47.76
2023-03-29T23:16:16.629Z,48.01
2023-03-29T23:18:43.887Z,47.75
2023-03-29T23:21:11.010Z,48.05
2023-03-29T23:23:38.996Z,48.50
2023-03-29T23:26:08.493Z,48.73
2023-03-29T23:28:35.777Z,48.50
2023-03-29T23:31:06.421Z,48.36
2023-03-29T23:33:35.932Z,48.57
2023-03-29T23:36:06.110Z,47.99
2023-03-29T23:38:35.589Z,48.07
2023-03-29T23:41:05.885Z,47.78
2023-03-29T23:43:35.468Z,47.44
2023-03-29T23:46:04.625Z,46.93
2023-03-29T23:48:32.786Z,46.77
2023-03-29T23:51:01.311Z,46.83
2023-03-29T23:53:29.566Z,46.54
2023-03-29T23:56:01.592Z,46.24
2023-03-29T23:58:29.962Z,46.00
